createdAt,value
2022-07-25T00:01:12.812Z,2.23
2022-07-25T00:03:40.940Z,2.10
2022-07-25T00:06:18.422Z,1.77
2022-07-25T00:08:45.171Z,2.00
2022-07-25T00:11:11.848Z,2.00
2022-07-25T00:13:38.498Z,2.00
2022-07-25T00:16:06.040Z,2.07
2022-07-25T00:18:35.626Z,2.40
2022-07-25T00:21:02.294Z,2.20
2022-07-25T00:23:29.292Z,2.00
2022-07-25T00:25:56.209Z,2.30
2022-07-25T00:28:22.855Z,2.10
2022-07-25T00:30:50.133Z,2.10
2022-07-25T00:33:16.938Z,1.87
2022-07-25T00:35:43.763Z,1.97
2022-07-25T00:38:10.367Z,2.17
2022-07-25T00:40:37.229Z,1.97
2022-07-25T00:43:04.245Z,2.10
2022-07-25T00:45:34.132Z,1.77
2022-07-25T00:48:00.793Z,2.03
2022-07-25T00:50:27.443Z,2.50
2022-07-25T00:52:54.466Z,2.03
2022-07-25T00:55:22.148Z,2.17
2022-07-25T00:57:48.827Z,1.90
2022-07-25T01:00:16.727Z,2.10
2022-07-25T01:02:44.226Z,2.30
2022-07-25T01:05:11.729Z,2.00
2022-07-25T01:07:39.294Z,2.43
2022-07-25T01:10:07.566Z,2.07
2022-07-25T01:12:54.972Z,2.03
2022-07-25T01:15:24.313Z,2.07
2022-07-25T01:17:51.431Z,2.33
2022-07-25T01:20:29.447Z,2.30
2022-07-25T01:22:56.547Z,2.13
2022-07-25T01:25:24.005Z,2.20
2022-07-25T01:27:55.697Z,2.13
2022-07-25T01:30:24.228Z,2.33
2022-07-25T01:32:50.885Z,2.40
2022-07-25T01:35:17.664Z,2.00
2022-07-25T01:37:46.159Z,2.50
2022-07-25T01:40:14.105Z,2.30
2022-07-25T01:42:41.845Z,2.60
2022-07-25T01:45:09.128Z,2.90
2022-07-25T01:47:35.822Z,2.50
2022-07-25T01:50:02.491Z,2.30
2022-07-25T01:52:29.136Z,2.73
2022-07-25T01:54:55.826Z,2.57
2022-07-25T01:57:23.271Z,2.50
2022-07-25T01:59:56.839Z,2.77
2022-07-25T02:02:23.476Z,2.40
2022-07-25T02:04:50.143Z,2.40
2022-07-25T02:07:16.867Z,2.67
2022-07-25T02:09:43.486Z,2.50
2022-07-25T02:12:10.160Z,2.43
2022-07-25T02:14:36.995Z,2.43
2022-07-25T02:17:03.884Z,2.50
2022-07-25T02:19:30.594Z,2.33
2022-07-25T02:21:57.210Z,2.73
2022-07-25T02:24:23.837Z,2.43
2022-07-25T02:26:50.462Z,2.50
2022-07-25T02:29:17.118Z,2.30
2022-07-25T02:31:48.628Z,2.57
2022-07-25T02:34:15.256Z,2.40
2022-07-25T02:36:41.873Z,2.40
2022-07-25T02:39:08.573Z,2.43
2022-07-25T02:41:35.263Z,2.47
2022-07-25T02:44:01.861Z,2.30
2022-07-25T02:46:28.578Z,2.50
2022-07-25T02:48:55.307Z,2.30
2022-07-25T02:51:21.982Z,2.60
2022-07-25T02:53:58.193Z,2.73
2022-07-25T02:56:26.909Z,2.30
2022-07-25T02:58:56.605Z,2.20
2022-07-25T03:01:23.281Z,2.47
2022-07-25T03:03:50.186Z,2.40
2022-07-25T03:06:17.101Z,2.57
2022-07-25T03:08:43.748Z,2.50
2022-07-25T03:11:11.555Z,2.30
2022-07-25T03:13:38.172Z,2.40
2022-07-25T03:16:05.187Z,2.30
2022-07-25T03:18:31.800Z,2.20
2022-07-25T03:20:58.569Z,2.40
2022-07-25T03:23:27.313Z,2.50
2022-07-25T03:25:54.892Z,2.40
2022-07-25T03:28:21.508Z,2.50
2022-07-25T03:30:48.106Z,2.40
2022-07-25T03:33:14.721Z,2.50
2022-07-25T03:35:41.606Z,2.83
2022-07-25T03:38:08.426Z,2.47
2022-07-25T03:40:36.588Z,2.37
2022-07-25T03:43:03.362Z,2.60
2022-07-25T03:45:30.279Z,2.40
2022-07-25T03:47:56.933Z,2.37
2022-07-25T03:50:23.763Z,2.30
2022-07-25T03:52:50.339Z,2.60
2022-07-25T03:55:16.990Z,2.40
2022-07-25T03:57:43.673Z,2.63
2022-07-25T04:00:12.358Z,2.63
2022-07-25T04:02:39.087Z,2.40
2022-07-25T04:05:07.973Z,2.60
2022-07-25T04:07:35.206Z,2.33
2022-07-25T04:10:02.209Z,2.60
2022-07-25T04:12:28.935Z,2.70
2022-07-25T04:14:55.511Z,2.70
2022-07-25T04:17:22.314Z,2.50
2022-07-25T04:19:51.887Z,2.70
2022-07-25T04:22:18.550Z,2.80
2022-07-25T04:24:45.150Z,2.80
2022-07-25T04:27:11.813Z,2.80
2022-07-25T04:29:38.435Z,2.60
2022-07-25T04:32:05.876Z,2.80
2022-07-25T04:34:32.548Z,2.60
2022-07-25T04:36:59.136Z,2.60
2022-07-25T04:39:26.023Z,2.80
2022-07-25T04:41:52.666Z,2.67
2022-07-25T04:44:19.352Z,2.50
2022-07-25T04:46:45.952Z,2.53
2022-07-25T04:49:12.678Z,2.63
2022-07-25T04:51:39.388Z,2.50
2022-07-25T04:54:06.573Z,2.90
2022-07-25T04:56:33.561Z,2.70
2022-07-25T04:59:06.377Z,2.87
2022-07-25T05:01:33.849Z,3.00
2022-07-25T05:04:00.541Z,2.80
2022-07-25T05:06:27.149Z,2.53
2022-07-25T05:08:53.834Z,2.83
2022-07-25T05:11:20.487Z,2.60
2022-07-25T05:13:47.120Z,2.70
2022-07-25T05:16:13.824Z,2.83
2022-07-25T05:18:40.760Z,2.77
2022-07-25T05:21:10.687Z,2.63
2022-07-25T05:23:37.281Z,2.70
2022-07-25T05:26:03.927Z,3.00
2022-07-25T05:28:30.527Z,2.60
2022-07-25T05:30:57.175Z,3.13
2022-07-25T05:33:23.853Z,3.00
2022-07-25T05:35:50.509Z,2.73
2022-07-25T05:38:17.168Z,2.70
2022-07-25T05:40:43.871Z,2.90
2022-07-25T05:43:10.747Z,2.97
2022-07-25T05:45:37.656Z,2.80
2022-07-25T05:48:04.566Z,2.40
2022-07-25T05:50:31.676Z,2.90
2022-07-25T05:52:58.343Z,2.87
2022-07-25T05:55:24.959Z,3.17
2022-07-25T05:57:51.529Z,3.07
2022-07-25T06:00:18.378Z,3.00
2022-07-25T06:02:45.121Z,2.93
2022-07-25T06:05:11.841Z,3.07
2022-07-25T06:07:38.462Z,3.10
2022-07-25T06:10:05.596Z,3.13
2022-07-25T06:12:33.760Z,3.00
2022-07-25T06:15:04.159Z,3.03
2022-07-25T06:17:32.656Z,3.10
2022-07-25T06:19:59.583Z,3.03
2022-07-25T06:22:26.637Z,3.00
2022-07-25T06:24:53.231Z,3.17
2022-07-25T06:27:21.649Z,3.03
2022-07-25T06:29:49.853Z,2.97
2022-07-25T06:32:16.466Z,3.27
2022-07-25T06:34:43.128Z,3.47
2022-07-25T06:37:09.833Z,3.20
2022-07-25T06:39:36.538Z,3.07
2022-07-25T06:42:04.544Z,3.10
2022-07-25T06:44:35.064Z,2.90
2022-07-25T06:47:02.624Z,3.33
2022-07-25T06:49:29.395Z,3.30
2022-07-25T06:51:55.997Z,3.10
2022-07-25T06:54:22.908Z,2.90
2022-07-25T06:56:49.701Z,3.10
2022-07-25T06:59:16.363Z,3.40
2022-07-25T07:01:43.731Z,3.40
2022-07-25T07:04:12.632Z,4.63
2022-07-25T07:06:40.022Z,3.50
2022-07-25T07:09:07.985Z,3.37
2022-07-25T07:11:34.752Z,3.20
2022-07-25T07:14:03.670Z,3.50
2022-07-25T07:16:31.343Z,3.60
2022-07-25T07:18:58.445Z,3.50
2022-07-25T07:21:25.170Z,3.10
2022-07-25T07:23:53.669Z,3.00
2022-07-25T07:26:20.682Z,3.53
2022-07-25T07:28:47.327Z,3.23
2022-07-25T07:31:17.529Z,3.07
2022-07-25T07:33:44.591Z,3.37
2022-07-25T07:36:11.421Z,3.40
2022-07-25T07:38:38.048Z,3.50
2022-07-25T07:41:04.659Z,3.30
2022-07-25T07:43:32.032Z,3.63
2022-07-25T07:46:01.094Z,3.17
2022-07-25T07:48:32.038Z,3.50
2022-07-25T07:51:00.197Z,3.40
2022-07-25T07:53:47.258Z,3.77
2022-07-25T07:56:15.914Z,3.37
2022-07-25T07:58:43.310Z,3.47
2022-07-25T08:01:09.971Z,4.40
2022-07-25T08:03:37.440Z,3.37
2022-07-25T08:06:04.795Z,4.17
2022-07-25T08:08:31.875Z,5.37
2022-07-25T08:10:59.675Z,3.87
2022-07-25T08:13:30.522Z,3.85
2022-07-25T08:15:59.711Z,3.33
2022-07-25T08:18:29.941Z,3.67
2022-07-25T08:20:57.393Z,3.42
2022-07-25T08:23:25.777Z,3.42
2022-07-25T08:25:52.593Z,3.72
2022-07-25T08:28:19.996Z,3.67
2022-07-25T08:30:46.902Z,3.40
2022-07-25T08:33:16.428Z,3.80
2022-07-25T08:35:54.910Z,2.95
2022-07-25T08:38:23.973Z,3.47
2022-07-25T08:40:51.594Z,3.45
2022-07-25T08:43:19.603Z,3.65
2022-07-25T08:45:53.985Z,3.65
2022-07-25T08:48:23.999Z,3.20
2022-07-25T08:50:51.723Z,3.30
2022-07-25T08:53:36.100Z,3.30
2022-07-25T08:56:14.891Z,3.28
2022-07-25T08:58:44.589Z,3.45
2022-07-25T09:01:12.708Z,3.80
2022-07-25T09:03:40.436Z,3.00
2022-07-25T09:06:21.970Z,3.38
2022-07-25T09:08:59.743Z,3.20
2022-07-25T09:11:34.713Z,3.45
2022-07-25T09:14:11.052Z,3.50
2022-07-25T09:16:45.305Z,3.38
2022-07-25T09:19:16.248Z,3.10
2022-07-25T09:21:45.453Z,3.13
2022-07-25T09:24:16.137Z,3.40
2022-07-25T09:26:44.287Z,3.78
2022-07-25T09:29:21.566Z,3.10
2022-07-25T09:31:48.463Z,3.45
2022-07-25T09:34:39.592Z,3.55
2022-07-25T09:37:12.623Z,3.47
2022-07-25T09:39:48.416Z,3.53
2022-07-25T09:42:28.663Z,3.60
2022-07-25T09:44:59.848Z,3.65
2022-07-25T09:47:27.424Z,3.50
2022-07-25T09:49:54.077Z,3.70
2022-07-25T09:52:20.784Z,3.50
2022-07-25T09:54:47.542Z,3.35
2022-07-25T09:57:14.383Z,3.78
2022-07-25T09:59:41.043Z,3.70
2022-07-25T10:02:11.812Z,3.38
2022-07-25T10:05:03.796Z,3.30
2022-07-25T10:07:31.675Z,3.60
2022-07-25T10:10:00.153Z,3.35
2022-07-25T10:12:26.815Z,3.13
2022-07-25T10:15:13.956Z,3.53
2022-07-25T10:17:42.042Z,3.28
2022-07-25T10:20:10.419Z,3.90
2022-07-25T10:22:55.745Z,3.55
2022-07-25T10:25:23.279Z,3.35
2022-07-25T10:27:58.295Z,3.50
2022-07-25T10:30:27.567Z,3.42
2022-07-25T10:33:10.581Z,3.58
2022-07-25T10:35:38.248Z,3.40
2022-07-25T10:38:06.049Z,3.60
2022-07-25T10:40:38.611Z,3.20
2022-07-25T10:43:21.061Z,3.47
2022-07-25T10:45:57.048Z,3.70
2022-07-25T10:48:23.665Z,3.67
2022-07-25T10:50:59.000Z,3.65
2022-07-25T10:53:34.764Z,4.00
2022-07-25T10:56:28.704Z,3.72
2022-07-25T10:59:00.810Z,3.60
2022-07-25T11:01:32.269Z,3.67
2022-07-25T11:04:03.944Z,3.25
2022-07-25T11:06:41.825Z,3.17
2022-07-25T11:09:22.663Z,3.45
2022-07-25T11:11:54.058Z,3.40
2022-07-25T11:14:33.267Z,3.17
2022-07-25T11:17:15.294Z,3.72
2022-07-25T11:19:53.941Z,2.97
2022-07-25T11:22:20.829Z,3.00
2022-07-25T11:24:47.947Z,3.20
2022-07-25T11:27:28.474Z,3.38
2022-07-25T11:30:21.583Z,3.35
2022-07-25T11:32:58.106Z,3.28
2022-07-25T11:35:33.134Z,3.47
2022-07-25T11:38:02.554Z,3.60
2022-07-25T11:40:30.509Z,3.28
2022-07-25T11:42:59.743Z,3.55
2022-07-25T11:45:29.212Z,3.55
2022-07-25T11:48:11.837Z,3.22
2022-07-25T11:50:44.320Z,3.55
2022-07-25T11:53:14.831Z,3.70
2022-07-25T11:55:43.381Z,3.53
2022-07-25T11:58:13.016Z,3.58
2022-07-25T12:00:42.059Z,3.25
2022-07-25T12:03:19.931Z,3.17
2022-07-25T12:05:48.112Z,3.30
2022-07-25T12:08:20.402Z,3.40
2022-07-25T12:10:48.630Z,3.83
2022-07-25T12:13:28.199Z,3.60
2022-07-25T12:15:57.162Z,3.95
2022-07-25T12:18:24.026Z,3.90
2022-07-25T12:20:50.978Z,3.90
2022-07-25T12:23:18.815Z,3.53
2022-07-25T12:25:46.459Z,3.83
2022-07-25T12:28:14.001Z,3.65
2022-07-25T12:30:42.606Z,3.90
2022-07-25T12:33:10.209Z,3.67
2022-07-25T12:35:39.571Z,3.80
2022-07-25T12:38:06.290Z,3.67
2022-07-25T12:40:33.030Z,3.20
2022-07-25T12:43:00.437Z,3.92
2022-07-25T12:45:28.031Z,3.60
2022-07-25T12:47:54.938Z,3.72
2022-07-25T12:50:22.452Z,3.70
2022-07-25T12:52:49.074Z,4.05
2022-07-25T12:55:18.077Z,3.40
2022-07-25T12:57:45.894Z,3.70
2022-07-25T13:00:15.724Z,3.57
2022-07-25T13:02:43.597Z,3.42
2022-07-25T13:05:10.673Z,3.50
2022-07-25T13:07:37.978Z,3.38
2022-07-25T13:10:05.767Z,3.80
2022-07-25T13:12:32.541Z,3.60
2022-07-25T13:14:59.812Z,3.70
2022-07-25T13:17:27.904Z,3.55
2022-07-25T13:19:56.601Z,3.10
2022-07-25T13:22:24.447Z,3.40
2022-07-25T13:24:51.484Z,3.70
2022-07-25T13:27:19.805Z,3.75
2022-07-25T13:29:47.356Z,3.50
2022-07-25T13:32:14.183Z,3.10
2022-07-25T13:34:40.889Z,3.40
2022-07-25T13:37:07.650Z,3.08
2022-07-25T13:39:42.889Z,3.10
2022-07-25T13:42:09.803Z,3.65
2022-07-25T13:44:36.459Z,3.53
2022-07-25T13:47:03.070Z,3.15
2022-07-25T13:49:31.477Z,3.17
2022-07-25T13:51:58.282Z,3.40
2022-07-25T13:54:24.997Z,2.83
2022-07-25T13:56:51.803Z,3.58
2022-07-25T13:59:21.546Z,3.35
2022-07-25T14:01:49.245Z,3.42
2022-07-25T14:04:16.092Z,3.08
2022-07-25T14:06:43.240Z,3.58
2022-07-25T14:09:10.129Z,3.35
2022-07-25T14:11:37.162Z,3.22
2022-07-25T14:14:04.027Z,3.17
2022-07-25T14:16:30.797Z,3.15
2022-07-25T14:18:57.479Z,3.30
2022-07-25T14:21:24.203Z,3.08
2022-07-25T14:23:52.376Z,2.85
2022-07-25T14:26:19.020Z,3.35
2022-07-25T14:28:45.699Z,2.60
2022-07-25T14:31:15.564Z,2.85
2022-07-25T14:33:42.264Z,2.93
2022-07-25T14:36:11.783Z,2.83
2022-07-25T14:38:38.680Z,3.17
2022-07-25T14:41:12.547Z,3.03
2022-07-25T14:43:40.067Z,3.05
2022-07-25T14:46:08.134Z,2.88
2022-07-25T14:48:37.337Z,3.20
2022-07-25T14:51:04.840Z,2.75
2022-07-25T14:53:32.449Z,3.50
2022-07-25T14:55:59.452Z,3.33
2022-07-25T14:58:26.164Z,3.08
2022-07-25T15:00:52.852Z,3.28
2022-07-25T15:03:19.624Z,3.10
2022-07-25T15:05:46.257Z,2.58
2022-07-25T15:08:14.364Z,3.00
2022-07-25T15:10:41.266Z,2.95
2022-07-25T15:13:30.095Z,3.47
2022-07-25T15:15:54.684Z,2.95
2022-07-25T15:18:21.386Z,3.30
2022-07-25T15:20:48.747Z,2.88
2022-07-25T15:23:15.449Z,3.10
2022-07-25T15:28:29.047Z,3.20
2022-07-25T15:30:55.896Z,3.00
2022-07-25T15:33:22.560Z,3.22
2022-07-25T15:35:49.224Z,3.25
2022-07-25T15:38:16.260Z,3.15
2022-07-25T15:40:43.895Z,3.30
2022-07-25T15:43:10.952Z,3.30
2022-07-25T15:45:39.555Z,2.97
2022-07-25T15:48:11.361Z,2.92
2022-07-25T15:50:43.080Z,2.95
2022-07-25T15:53:10.704Z,3.22
2022-07-25T15:55:39.076Z,2.83
2022-07-25T15:58:06.132Z,2.90
2022-07-25T16:00:34.579Z,2.60
2022-07-25T16:03:01.360Z,2.85
2022-07-25T16:05:28.587Z,3.17
2022-07-25T16:07:55.551Z,2.88
2022-07-25T16:10:22.230Z,3.03
2022-07-25T16:12:48.900Z,3.10
2022-07-25T16:15:16.201Z,3.10
2022-07-25T16:17:42.836Z,3.15
2022-07-25T16:20:10.316Z,2.92
2022-07-25T16:22:38.204Z,3.10
2022-07-25T16:25:05.773Z,3.20
2022-07-25T16:27:32.718Z,2.85
2022-07-25T16:29:59.373Z,2.95
2022-07-25T16:32:25.976Z,3.08
2022-07-25T16:34:52.604Z,2.75
2022-07-25T16:37:20.542Z,2.53
2022-07-25T16:39:47.183Z,2.90
2022-07-25T16:42:13.813Z,2.75
2022-07-25T16:44:40.474Z,2.60
2022-07-25T16:47:07.804Z,3.08
2022-07-25T16:49:34.444Z,3.65
2022-07-25T16:52:01.072Z,2.72
2022-07-25T16:54:27.753Z,2.47
2022-07-25T16:56:58.279Z,2.60
2022-07-25T16:59:26.259Z,2.50
2022-07-25T17:01:53.073Z,2.55
2022-07-25T17:04:19.844Z,3.03
2022-07-25T17:06:47.778Z,2.67
2022-07-25T17:09:14.545Z,2.53
2022-07-25T17:11:41.208Z,2.20
2022-07-25T17:14:08.046Z,2.40
2022-07-25T17:16:34.781Z,2.38
2022-07-25T17:19:02.899Z,2.70
2022-07-25T17:21:29.569Z,2.65
2022-07-25T17:24:02.342Z,2.40
2022-07-25T17:26:29.031Z,2.58
2022-07-25T17:28:59.648Z,2.50
2022-07-25T17:31:27.678Z,2.60
2022-07-25T17:33:54.351Z,2.30
2022-07-25T17:36:21.123Z,2.60
2022-07-25T17:38:55.356Z,2.60
2022-07-25T17:41:21.982Z,2.50
2022-07-25T17:43:48.610Z,2.55
2022-07-25T17:46:16.184Z,2.43
2022-07-25T17:48:43.027Z,2.83
2022-07-25T17:51:09.706Z,2.35
2022-07-25T17:53:36.312Z,2.58
2022-07-25T17:56:03.622Z,2.80
2022-07-25T17:58:31.803Z,2.70
2022-07-25T18:01:01.425Z,2.57
2022-07-25T18:03:28.860Z,2.45
2022-07-25T18:05:55.791Z,2.50
2022-07-25T18:08:22.745Z,2.30
2022-07-25T18:10:50.015Z,2.63
2022-07-25T18:13:18.698Z,2.73
2022-07-25T18:15:45.917Z,2.93
2022-07-25T18:18:16.953Z,3.20
2022-07-25T18:20:47.215Z,2.80
2022-07-25T18:23:14.114Z,2.60
2022-07-25T18:25:40.827Z,3.03
2022-07-25T18:28:07.709Z,2.97
2022-07-25T18:30:36.397Z,2.80
2022-07-25T18:33:09.179Z,3.07
2022-07-25T18:35:38.480Z,3.07
2022-07-25T18:38:15.844Z,3.20
2022-07-25T18:40:42.496Z,3.17
2022-07-25T18:43:09.342Z,3.40
2022-07-25T18:45:38.423Z,3.30
2022-07-25T18:48:06.864Z,3.00
2022-07-25T18:50:34.162Z,3.00
2022-07-25T18:53:01.172Z,3.43
2022-07-25T18:55:28.035Z,3.40
2022-07-25T18:57:55.259Z,3.30
2022-07-25T19:00:25.240Z,3.27
2022-07-25T19:02:54.922Z,3.27
2022-07-25T19:05:24.813Z,3.20
2022-07-25T19:07:52.435Z,3.50
2022-07-25T19:10:20.205Z,3.67
2022-07-25T19:12:46.832Z,3.27
2022-07-25T19:15:14.580Z,3.17
2022-07-25T19:17:41.669Z,3.17
2022-07-25T19:20:09.445Z,3.33
2022-07-25T19:22:37.070Z,3.03
2022-07-25T19:25:08.367Z,3.50
2022-07-25T19:27:36.244Z,3.50
2022-07-25T19:30:07.434Z,3.40
2022-07-25T19:32:35.721Z,3.93
2022-07-25T19:35:04.408Z,3.10
2022-07-25T19:37:31.280Z,3.37
2022-07-25T19:39:58.029Z,3.73
2022-07-25T19:42:24.801Z,4.07
2022-07-25T19:44:52.337Z,3.37
2022-07-25T19:47:19.103Z,3.00
2022-07-25T19:49:45.898Z,3.30
2022-07-25T19:52:12.922Z,3.30
2022-07-25T19:54:39.972Z,3.27
2022-07-25T19:57:09.832Z,3.43
2022-07-25T19:59:36.955Z,3.53
2022-07-25T20:02:04.894Z,3.30
2022-07-25T20:04:31.700Z,3.30
2022-07-25T20:07:01.139Z,3.03
2022-07-25T20:09:29.448Z,2.87
2022-07-25T20:11:56.821Z,2.90
2022-07-25T20:14:23.970Z,2.90
2022-07-25T20:16:51.117Z,2.73
2022-07-25T20:19:18.156Z,2.80
2022-07-25T20:21:45.077Z,3.17
2022-07-25T20:24:13.625Z,3.17
2022-07-25T20:26:42.543Z,3.17
2022-07-25T20:29:09.641Z,3.23
2022-07-25T20:31:37.059Z,3.07
2022-07-25T20:34:03.918Z,3.07
2022-07-25T20:36:30.533Z,3.10
2022-07-25T20:39:01.032Z,2.90
2022-07-25T20:41:27.672Z,2.87
2022-07-25T20:43:55.674Z,2.97
2022-07-25T20:46:22.817Z,3.53
2022-07-25T20:48:49.595Z,3.00
2022-07-25T20:51:16.708Z,2.93
2022-07-25T20:53:43.975Z,2.90
2022-07-25T20:56:18.151Z,2.97
2022-07-25T20:58:44.752Z,3.00
2022-07-25T21:01:11.887Z,2.70
2022-07-25T21:03:38.566Z,3.10
2022-07-25T21:06:05.320Z,3.50
2022-07-25T21:08:31.982Z,3.13
2022-07-25T21:10:58.999Z,3.00
2022-07-25T21:13:25.792Z,3.07
2022-07-25T21:15:57.899Z,3.30
2022-07-25T21:18:24.609Z,3.50
2022-07-25T21:20:51.309Z,3.37
2022-07-25T21:23:17.981Z,2.87
2022-07-25T21:25:44.604Z,3.50
2022-07-25T21:28:11.258Z,3.30
2022-07-25T21:30:41.144Z,3.33
2022-07-25T21:33:13.997Z,2.93
2022-07-25T21:35:49.352Z,3.20
2022-07-25T21:38:26.098Z,3.23
2022-07-25T21:40:55.806Z,2.70
2022-07-25T21:43:22.439Z,3.10
2022-07-25T21:45:49.226Z,3.00
2022-07-25T21:48:15.948Z,3.27
2022-07-25T21:50:49.334Z,3.50
2022-07-25T21:53:17.377Z,3.30
2022-07-25T21:55:44.096Z,3.93
2022-07-25T21:58:10.833Z,3.30
2022-07-25T22:00:43.841Z,3.40
2022-07-25T22:03:12.516Z,3.60
2022-07-25T22:05:39.550Z,3.40
2022-07-25T22:08:06.305Z,4.00
2022-07-25T22:10:33.664Z,4.00
2022-07-25T22:13:00.442Z,4.23
2022-07-25T22:15:27.087Z,4.50
2022-07-25T22:17:54.149Z,4.53
2022-07-25T22:20:21.024Z,4.83
2022-07-25T22:22:48.086Z,4.40
2022-07-25T22:25:15.580Z,4.73
2022-07-25T22:27:42.353Z,4.53
2022-07-25T22:30:12.328Z,5.00
2022-07-25T22:32:43.197Z,5.00
2022-07-25T22:35:09.977Z,4.40
2022-07-25T22:37:36.621Z,5.10
2022-07-25T22:40:03.877Z,5.43
2022-07-25T22:42:30.513Z,4.70
2022-07-25T22:44:57.145Z,5.00
2022-07-25T22:47:23.805Z,4.97
2022-07-25T22:49:50.420Z,4.90
2022-07-25T22:52:17.087Z,5.40
2022-07-25T22:54:43.844Z,5.40
2022-07-25T22:57:10.528Z,5.13
2022-07-25T22:59:37.332Z,5.40
2022-07-25T23:02:03.940Z,5.27
2022-07-25T23:04:30.646Z,5.57
2022-07-25T23:06:57.260Z,5.53
2022-07-25T23:09:24.108Z,5.63
2022-07-25T23:11:50.942Z,5.23
2022-07-25T23:14:17.682Z,5.43
2022-07-25T23:16:44.346Z,5.50
2022-07-25T23:19:11.152Z,5.30
2022-07-25T23:21:37.915Z,5.43
2022-07-25T23:24:06.014Z,5.30
2022-07-25T23:26:32.655Z,5.37
2022-07-25T23:28:59.251Z,5.37
2022-07-25T23:31:25.875Z,5.27
2022-07-25T23:33:52.536Z,5.33
2022-07-25T23:36:19.184Z,5.40
2022-07-25T23:38:45.825Z,5.67
2022-07-25T23:41:12.453Z,5.63
2022-07-25T23:43:56.915Z,6.20
2022-07-25T23:46:29.326Z,5.60
2022-07-25T23:48:58.619Z,5.53
2022-07-25T23:51:25.879Z,5.80
2022-07-25T23:53:52.491Z,6.03
2022-07-25T23:56:21.188Z,6.20
2022-07-25T23:58:50.153Z,6.33
